Port Said/El Gamil, Egypt
Current Conditions -  °F | °C
As of 3:00 PM on Saturday 20 Dec 2014 (Local Time) from HEPS Reporting Station
Scattered Clouds Scattered Clouds  
Wind Chill: 66°   Ceiling: Unl
Heat Index: 66°   Visibility: 6mi
Dew Point: 54°   Wind: 9mph
Humidity: 64%   Direction: 330°NNW
Pressure: 30.12"   Gusts: NA
Location:  31.28°N, 32.23°E
Report Text: HEPS 201300Z 33008KT 9999 SCT025 19/12 Q1020 NOSIG
Loading
Personal Weather Stations






























Interactive Weather Map New forecast layout! Learn more

10-Day Weather Forecast

Advertisements
Track Severe Weather on mobile